KOLY/OLY METAR and TAF weather

Enter ICAO airport designator
Station Type Date Time Source
KOLY METAR 2022/09/23 05:15 UTC NOAA

KOLY 230515Z AUTO 00000KT 10SM CLR 10/07 A3021 RMK AO2 T00980071


Station Type Date Time Source
KOLY Decoded METAR 2022/09/23 05:15 UTC NOAA

Olney-Noble, Olney-Noble Airport, IL, United States (KOLY) 38-43-19N 088-10-35W
Sep 23, 2022 - 01:15 AM EDT / 2022.09.23 0515 UTC
Wind: Calm:0
Visibility: 10 mile(s):0
Sky conditions: clear
Temperature: 49.6 F (9.8 C)
Dew Point: 44.8 F (7.1 C)
Relative Humidity: 83%
Pressure (altimeter): 30.21 in. Hg (1023 hPa)
ob: KOLY 230515Z AUTO 00000KT 10SM CLR 10/07 A3021 RMK AO2 T00980071
cycle: 5

Station Type Date Time Source
KOLY TAF UTC NOAA

Error!

Example: see airport list